Time;durP1;ratioP1;P1;durP2;ratioP2;P2;SDS_P1;SDS_P2;PMS_P1;PMS_P2;Temp;Humidity;BMP_temperature;BMP_pressure;BME280_temperature;BME280_humidity;BME280_pressure;Samples;Min_cycle;Max_cycle;Signal;HPM_P1;HPM_P2
2023/05/19 00:01:08;;;;;;;;;;;;;;;14.64;100.00;99819.80;105571;1257;74455;-63
2023/05/19 00:03:39;;;;;;;;;;;;;;;14.64;100.00;99818.08;105646;1257;69872;-62
2023/05/19 00:06:09;;;;;;;;;;;;;;;14.62;100.00;99819.73;105641;1258;74928;-62
2023/05/19 00:08:36;;;;;;;;;;;;;;;14.62;100.00;99813.55;105614;1251;63050;-62
2023/05/19 00:11:03;;;;;;;;;;;;;;;14.59;100.00;99816.86;105493;1254;60839;-61
2023/05/19 00:13:30;;;;;;;;;;;;;;;14.57;100.00;99817.33;105343;1257;76548;-61
2023/05/19 00:15:57;;;;;;;;;;;;;;;14.57;100.00;99818.75;105416;1266;67292;-61
2023/05/19 00:18:25;;;;;;;;;;;;;;;14.56;100.00;99815.09;106087;1256;74943;-62
2023/05/19 00:20:52;;;;;;;;;;;;;;;14.54;100.00;99812.84;105454;1258;64585;-62
2023/05/19 00:23:18;;;;;;;;;;;;;;;14.53;100.00;99813.39;105394;1257;61919;-62
2023/05/19 00:25:45;;;;;;;;;;;;;;;14.50;100.00;99812.55;105403;1254;73806;-62
2023/05/19 00:28:12;;;;;;;;;;;;;;;14.48;100.00;99810.28;105479;1261;68815;-62
2023/05/19 00:30:40;;;;;;;;;;;;;;;14.49;100.00;99812.25;105503;1255;74397;-62
2023/05/19 00:33:07;;;;;;;;;;;;;;;14.50;100.00;99811.81;105572;1257;60718;-62
2023/05/19 00:35:34;;;;;;;;;;;;;;;14.50;100.00;99811.44;105643;1254;61964;-62
2023/05/19 00:38:00;;;;;;;;;;;;;;;14.49;100.00;99809.38;105542;1254;74091;-64
2023/05/19 00:40:28;;;;;;;;;;;;;;;14.49;100.00;99809.41;105518;1254;70358;-67
2023/05/19 00:42:55;;;;;;;;;;;;;;;14.48;100.00;99807.91;105510;1254;73193;-62
2023/05/19 00:45:23;;;;;;;;;;;;;;;14.49;100.00;99806.80;105501;1256;62342;-63
2023/05/19 00:47:49;;;;;;;;;;;;;;;14.51;100.00;99805.77;105571;1252;62407;-61
2023/05/19 00:50:16;;;;;;;;;;;;;;;14.51;100.00;99808.48;105604;1258;73228;-63
2023/05/19 00:52:43;;;;;;;;;;;;;;;14.49;100.00;99810.14;105677;1259;66916;-62
2023/05/19 00:55:28;;;;;;;;;;;;;;;14.49;100.00;99806.02;102837;1292;599494;-61
2023/05/19 00:57:55;;;;;;;;;;;;;;;14.45;100.00;99805.73;105190;1264;59852;-62
2023/05/19 01:00:22;;;;;;;;;;;;;;;14.45;100.00;99805.60;105106;1263;62511;-61
2023/05/19 01:02:52;;;;;;;;;;;;;;;14.45;100.00;99807.73;105123;1263;74431;-62
2023/05/19 01:05:20;;;;;;;;;;;;;;;14.45;100.00;99803.80;105053;1260;69724;-62
2023/05/19 01:07:50;;;;;;;;;;;;;;;14.45;100.00;99803.46;105044;1266;75632;-62
2023/05/19 01:10:17;;;;;;;;;;;;;;;14.46;100.00;99803.92;104893;1259;305251;-62
2023/05/19 01:12:44;;;;;;;;;;;;;;;14.45;100.00;99800.29;105154;1258;59541;-62
2023/05/19 01:15:11;;;;;;;;;;;;;;;14.45;100.00;99799.58;105145;1258;72570;-62
2023/05/19 01:17:50;;;;;;;;;;;;;;;14.45;100.00;99799.71;105144;1263;68491;-62
2023/05/19 01:20:17;;;;;;;;;;;;;;;14.46;100.00;99800.48;105157;1263;72367;-63
2023/05/19 01:23:03;;;;;;;;;;;;;;;14.45;100.00;99795.68;105156;1262;62878;-62
2023/05/19 01:25:36;;;;;;;;;;;;;;;14.43;100.00;99796.63;105126;1263;59660;-62
2023/05/19 01:28:22;;;;;;;;;;;;;;;14.41;100.00;99794.84;105260;1263;72318;-65
2023/05/19 01:30:53;;;;;;;;;;;;;;;14.41;100.00;99799.38;105173;1263;67662;-62
2023/05/19 01:33:20;;;;;;;;;;;;;;;14.42;100.00;99802.06;105298;1258;74681;-62
2023/05/19 01:35:46;;;;;;;;;;;;;;;14.45;100.00;99803.66;105266;1264;63820;-62
2023/05/19 01:38:15;;;;;;;;;;;;;;;14.46;100.00;99800.91;105116;1258;62480;-60
2023/05/19 01:40:42;;;;;;;;;;;;;;;14.45;100.00;99800.45;105275;1262;74802;-63
2023/05/19 01:43:11;;;;;;;;;;;;;;;14.44;100.00;99801.29;105156;1263;68500;-63
2023/05/19 01:45:38;;;;;;;;;;;;;;;14.44;100.00;99805.23;105573;1264;75699;-61
2023/05/19 01:48:05;;;;;;;;;;;;;;;14.44;100.00;99805.19;105244;1259;62782;-63
2023/05/19 01:50:37;;;;;;;;;;;;;;;14.44;100.00;99810.02;105333;1256;61201;-63
2023/05/19 01:53:04;;;;;;;;;;;;;;;14.46;100.00;99811.05;105138;1263;74758;-61
2023/05/19 01:55:34;;;;;;;;;;;;;;;14.47;100.00;99812.70;105101;1264;69668;-62
2023/05/19 01:58:19;;;;;;;;;;;;;;;14.47;100.00;99812.23;105139;1264;72210;-63
2023/05/19 02:00:49;;;;;;;;;;;;;;;14.43;100.00;99807.51;105180;1262;62561;-62
2023/05/19 02:03:22;;;;;;;;;;;;;;;14.42;100.00;99812.06;105163;1263;61929;-62
2023/05/19 02:05:52;;;;;;;;;;;;;;;14.41;100.00;99812.02;105087;1262;75055;-63
2023/05/19 02:08:19;;;;;;;;;;;;;;;14.42;100.00;99814.94;105075;1264;69521;-61
2023/05/19 02:10:49;;;;;;;;;;;;;;;14.42;100.00;99817.26;105105;1263;72313;-64
2023/05/19 02:13:15;;;;;;;;;;;;;;;14.41;100.00;99819.83;105097;1263;63474;-63
2023/05/19 02:15:42;;;;;;;;;;;;;;;14.40;100.00;99822.70;105119;1263;61001;-61
2023/05/19 02:18:10;;;;;;;;;;;;;;;14.38;100.00;99819.02;105085;1259;71603;-63
2023/05/19 02:20:38;;;;;;;;;;;;;;;14.37;100.00;99819.99;105381;1257;69896;-62
2023/05/19 02:23:05;;;;;;;;;;;;;;;14.37;100.00;99819.49;105106;1261;75242;-64
2023/05/19 02:25:33;;;;;;;;;;;;;;;14.37;100.00;99822.64;105200;1262;62231;-62
2023/05/19 02:28:00;;;;;;;;;;;;;;;14.39;100.00;99825.09;105064;1263;60817;-63
2023/05/19 02:30:30;;;;;;;;;;;;;;;14.39;100.00;99827.89;105189;1257;75643;-63
2023/05/19 02:32:59;;;;;;;;;;;;;;;14.39;100.00;99825.65;105169;1263;69237;-63
2023/05/19 02:35:26;;;;;;;;;;;;;;;14.37;100.00;99827.98;105147;1261;73928;-62
2023/05/19 02:37:53;;;;;;;;;;;;;;;14.36;100.00;99826.34;105111;1262;62813;-63
2023/05/19 02:40:20;;;;;;;;;;;;;;;14.37;100.00;99827.55;105151;1273;61710;-62
2023/05/19 02:42:48;;;;;;;;;;;;;;;14.35;100.00;99827.59;105270;1258;75840;-61
2023/05/19 02:45:15;;;;;;;;;;;;;;;14.33;100.00;99830.98;105117;1262;70639;-61
2023/05/19 02:47:42;;;;;;;;;;;;;;;14.34;100.00;99835.35;105135;1258;73890;-62
2023/05/19 02:50:09;;;;;;;;;;;;;;;14.34;100.00;99838.52;105085;1263;63418;-61
2023/05/19 02:52:35;;;;;;;;;;;;;;;14.35;100.00;99837.02;105108;1264;60913;-61
2023/05/19 02:55:02;;;;;;;;;;;;;;;14.36;100.00;99834.98;105100;1263;74845;-61
2023/05/19 02:57:30;;;;;;;;;;;;;;;14.37;100.00;99839.46;105112;1264;70688;-61
2023/05/19 02:59:57;;;;;;;;;;;;;;;14.36;100.00;99839.62;105230;1263;75208;-63
2023/05/19 03:02:24;;;;;;;;;;;;;;;14.36;100.00;99838.17;105080;1271;62279;-61
2023/05/19 03:04:52;;;;;;;;;;;;;;;14.36;100.00;99841.15;105121;1264;62791;-63
2023/05/19 03:07:23;;;;;;;;;;;;;;;14.37;100.00;99841.90;105145;1262;74871;-63
2023/05/19 03:09:51;;;;;;;;;;;;;;;14.39;100.00;99844.16;105126;1263;70866;-62
2023/05/19 03:12:18;;;;;;;;;;;;;;;14.41;100.00;99843.80;105229;1258;73405;-64
2023/05/19 03:14:45;;;;;;;;;;;;;;;14.42;100.00;99847.33;105101;1260;63319;-65
2023/05/19 03:17:12;;;;;;;;;;;;;;;14.43;100.00;99845.81;105565;1254;62011;-63
2023/05/19 03:19:40;;;;;;;;;;;;;;;14.44;100.00;99846.20;105519;1258;73800;-62
2023/05/19 03:22:07;;;;;;;;;;;;;;;14.45;100.00;99842.02;105668;1259;69356;-62
2023/05/19 03:24:34;;;;;;;;;;;;;;;14.46;100.00;99844.79;105574;1254;73269;-63
2023/05/19 03:27:01;;;;;;;;;;;;;;;14.47;100.00;99846.82;105639;1254;63286;-63
2023/05/19 03:29:28;;;;;;;;;;;;;;;14.47;100.00;99846.45;105428;1253;61492;-65
2023/05/19 03:31:56;;;;;;;;;;;;;;;14.48;100.00;99847.40;105594;1255;74735;-65
2023/05/19 03:34:22;;;;;;;;;;;;;;;14.49;100.00;99846.70;105434;1260;69448;-61
2023/05/19 03:36:49;;;;;;;;;;;;;;;14.49;100.00;99850.47;105362;1257;71152;-61
2023/05/19 03:39:16;;;;;;;;;;;;;;;14.51;100.00;99854.86;105501;1260;63766;-64
2023/05/19 03:41:44;;;;;;;;;;;;;;;14.53;100.00;99855.30;105522;1254;61125;-63
2023/05/19 03:44:11;;;;;;;;;;;;;;;14.56;100.00;99853.11;105276;1252;72043;-63
2023/05/19 03:46:37;;;;;;;;;;;;;;;14.59;100.00;99852.62;105514;1254;69515;-64
2023/05/19 03:49:07;;;;;;;;;;;;;;;14.60;100.00;99854.31;105465;1254;75075;-65
2023/05/19 03:51:52;;;;;;;;;;;;;;;14.62;100.00;99855.50;105611;1257;61242;-61
2023/05/19 03:54:28;;;;;;;;;;;;;;;14.63;100.00;99858.34;105603;1253;60794;-64
2023/05/19 03:56:55;;;;;;;;;;;;;;;14.65;100.00;99856.34;105576;1259;74872;-64
2023/05/19 03:59:23;;;;;;;;;;;;;;;14.67;100.00;99858.60;105521;1254;68902;-62
2023/05/19 04:01:50;;;;;;;;;;;;;;;14.69;100.00;99861.83;105546;1260;74477;-61
2023/05/19 04:04:17;;;;;;;;;;;;;;;14.72;100.00;99862.45;105407;1254;63806;-62
2023/05/19 04:06:44;;;;;;;;;;;;;;;14.74;100.00;99861.98;105531;1258;59535;-62
2023/05/19 04:09:12;;;;;;;;;;;;;;;14.76;100.00;99861.23;105513;1254;75977;-62
2023/05/19 04:11:39;;;;;;;;;;;;;;;14.78;100.00;99862.73;105353;1261;68033;-63
2023/05/19 04:14:06;;;;;;;;;;;;;;;14.81;100.00;99866.61;105462;1255;75041;-63
2023/05/19 04:16:33;;;;;;;;;;;;;;;14.85;100.00;99866.52;105609;1254;64748;-63
2023/05/19 04:19:01;;;;;;;;;;;;;;;14.87;100.00;99869.44;105496;1257;61734;-62
2023/05/19 04:21:28;;;;;;;;;;;;;;;14.91;100.00;99871.23;105482;1260;75246;-61
2023/05/19 04:23:55;;;;;;;;;;;;;;;14.93;100.00;99873.18;105523;1260;67538;-63
2023/05/19 04:26:23;;;;;;;;;;;;;;;14.95;100.00;99873.11;105519;1260;72283;-63
2023/05/19 04:28:51;;;;;;;;;;;;;;;14.96;100.00;99877.70;105554;1259;62049;-63
2023/05/19 04:31:20;;;;;;;;;;;;;;;14.96;100.00;99877.98;105661;1253;60319;-63
2023/05/19 04:33:48;;;;;;;;;;;;;;;14.98;100.00;99883.33;105545;1255;74808;-64
2023/05/19 04:36:19;;;;;;;;;;;;;;;15.01;100.00;99880.77;105436;1254;68506;-67
2023/05/19 04:38:46;;;;;;;;;;;;;;;15.05;100.00;99880.31;105551;1254;73623;-66
2023/05/19 04:41:15;;;;;;;;;;;;;;;15.08;100.00;99880.67;105504;1254;62688;-70
2023/05/19 04:43:43;;;;;;;;;;;;;;;15.09;100.00;99881.59;105552;1260;61560;-64
2023/05/19 04:46:11;;;;;;;;;;;;;;;15.10;100.00;99880.94;105473;1260;75818;-70
2023/05/19 04:48:40;;;;;;;;;;;;;;;15.14;100.00;99885.23;105430;1252;68246;-67
2023/05/19 04:51:07;;;;;;;;;;;;;;;15.19;100.00;99883.22;105588;1257;72195;-65
2023/05/19 04:53:35;;;;;;;;;;;;;;;15.24;100.00;99882.75;105454;1255;64570;-63
2023/05/19 04:56:03;;;;;;;;;;;;;;;15.28;100.00;99879.70;105679;1257;61878;-60
2023/05/19 04:58:30;;;;;;;;;;;;;;;15.33;100.00;99877.23;105797;1254;73454;-64
2023/05/19 05:00:57;;;;;;;;;;;;;;;15.40;100.00;99877.67;105630;1257;68961;-64
2023/05/19 05:03:25;;;;;;;;;;;;;;;15.44;100.00;99876.63;105564;1255;75122;-65
2023/05/19 05:05:53;;;;;;;;;;;;;;;15.47;100.00;99879.83;105652;1254;64310;-67
2023/05/19 05:08:22;;;;;;;;;;;;;;;15.50;100.00;99879.88;105590;1254;61207;-68
2023/05/19 05:10:51;;;;;;;;;;;;;;;15.54;100.00;99882.78;105602;1259;74683;-68
2023/05/19 05:13:19;;;;;;;;;;;;;;;15.57;100.00;99880.70;105703;1259;69816;-67
2023/05/19 05:15:47;;;;;;;;;;;;;;;15.63;100.00;99881.42;105611;1257;75350;-65
2023/05/19 05:18:14;;;;;;;;;;;;;;;15.65;100.00;99881.52;105625;1254;62997;-66
2023/05/19 05:20:41;;;;;;;;;;;;;;;15.67;100.00;99884.93;105374;1254;61256;-63
2023/05/19 05:23:09;;;;;;;;;;;;;;;15.75;100.00;99883.30;105526;1255;75194;-66
2023/05/19 05:25:37;;;;;;;;;;;;;;;15.83;100.00;99882.64;105632;1254;69882;-62
2023/05/19 05:28:04;;;;;;;;;;;;;;;15.87;100.00;99885.14;105522;1260;71795;-63
2023/05/19 05:30:34;;;;;;;;;;;;;;;15.90;100.00;99886.81;105605;1257;64314;-63
2023/05/19 05:33:02;;;;;;;;;;;;;;;15.92;100.00;99885.01;105592;1260;60453;-64
2023/05/19 05:35:37;;;;;;;;;;;;;;;15.95;100.00;99886.59;105542;1254;75728;-65
2023/05/19 05:38:05;;;;;;;;;;;;;;;15.99;100.00;99887.17;105635;1254;68903;-64
2023/05/19 05:40:32;;;;;;;;;;;;;;;16.04;100.00;99885.59;105630;1258;75182;-65
2023/05/19 05:42:59;;;;;;;;;;;;;;;16.09;100.00;99891.25;105523;1258;64199;-63
2023/05/19 05:45:29;;;;;;;;;;;;;;;16.12;100.00;99894.20;105553;1260;60573;-63
2023/05/19 05:47:56;;;;;;;;;;;;;;;16.15;100.00;99896.98;105530;1254;76135;-65
2023/05/19 05:50:23;;;;;;;;;;;;;;;16.18;100.00;99895.52;105557;1260;70385;-63
2023/05/19 05:52:52;;;;;;;;;;;;;;;16.19;100.00;99889.91;105522;1254;73565;-68
2023/05/19 05:55:19;;;;;;;;;;;;;;;16.24;100.00;99891.30;105461;1260;62064;-66
2023/05/19 05:57:47;;;;;;;;;;;;;;;16.29;100.00;99889.23;105611;1258;62693;-66
2023/05/19 06:00:14;;;;;;;;;;;;;;;16.32;100.00;99890.33;105501;1259;74350;-66
2023/05/19 06:02:42;;;;;;;;;;;;;;;16.35;100.00;99890.30;105505;1254;70906;-67
2023/05/19 06:05:11;;;;;;;;;;;;;;;16.40;100.00;99890.59;105516;1260;75256;-67
2023/05/19 06:07:41;;;;;;;;;;;;;;;16.46;100.00;99893.59;105574;1254;64376;-66
2023/05/19 06:10:09;;;;;;;;;;;;;;;16.51;100.00;99886.27;105625;1255;62498;-66
2023/05/19 06:12:41;;;;;;;;;;;;;;;16.58;100.00;99894.15;105538;1257;73877;-67
2023/05/19 06:15:08;;;;;;;;;;;;;;;16.65;100.00;99890.41;105594;1254;70237;-68
2023/05/19 06:18:04;;;;;;;;;;;;;;;16.72;100.00;99889.13;105535;1254;72861;-65
2023/05/19 06:20:31;;;;;;;;;;;;;;;16.77;100.00;99897.21;105501;1253;63195;-66
2023/05/19 06:22:59;;;;;;;;;;;;;;;16.81;100.00;99896.81;105512;1256;60329;-66
2023/05/19 06:25:26;;;;;;;;;;;;;;;16.87;100.00;99897.20;105595;1260;75147;-66
2023/05/19 06:27:54;;;;;;;;;;;;;;;16.90;100.00;99896.73;105537;1254;70268;-67
2023/05/19 06:30:21;;;;;;;;;;;;;;;16.96;100.00;99898.16;105605;1254;74949;-66
2023/05/19 06:32:56;;;;;;;;;;;;;;;17.02;100.00;99901.64;105603;1254;64808;-66
2023/05/19 06:35:23;;;;;;;;;;;;;;;17.07;100.00;99903.66;105457;1260;62164;-69
2023/05/19 06:37:51;;;;;;;;;;;;;;;17.12;100.00;99905.31;105850;1257;75706;-67
2023/05/19 06:40:19;;;;;;;;;;;;;;;17.19;100.00;99906.01;105684;1254;69008;-67
2023/05/19 06:42:46;;;;;;;;;;;;;;;17.24;100.00;99907.27;105662;1254;72849;-66
2023/05/19 06:45:15;;;;;;;;;;;;;;;17.25;100.00;99907.23;105398;1253;64728;-67
2023/05/19 06:47:43;;;;;;;;;;;;;;;17.30;100.00;99907.03;105611;1253;61208;-67
2023/05/19 06:50:10;;;;;;;;;;;;;;;17.34;100.00;99910.10;105294;1260;76440;-67
2023/05/19 06:52:38;;;;;;;;;;;;;;;17.38;100.00;99909.33;105419;1254;70003;-68
2023/05/19 06:55:05;;;;;;;;;;;;;;;17.41;100.00;99910.91;105394;1257;75146;-66
2023/05/19 06:57:32;;;;;;;;;;;;;;;17.43;100.00;99909.79;105538;1252;64713;-68
2023/05/19 06:59:59;;;;;;;;;;;;;;;17.45;100.00;99913.39;105579;1256;61587;-69
2023/05/19 07:02:26;;;;;;;;;;;;;;;17.49;100.00;99912.41;105648;1256;76583;-65
2023/05/19 07:04:53;;;;;;;;;;;;;;;17.54;100.00;99905.19;105417;1260;67400;-69
2023/05/19 07:07:23;;;;;;;;;;;;;;;17.64;100.00;99904.27;105413;1254;73329;-68
2023/05/19 07:09:50;;;;;;;;;;;;;;;17.73;100.00;99903.32;105530;1253;64272;-67
2023/05/19 07:12:17;;;;;;;;;;;;;;;17.84;100.00;99900.80;105499;1260;61791;-69
2023/05/19 07:14:44;;;;;;;;;;;;;;;17.94;100.00;99896.33;105477;1257;74698;-66
2023/05/19 07:17:12;;;;;;;;;;;;;;;18.05;100.00;99898.80;105380;1253;70578;-70
2023/05/19 07:19:41;;;;;;;;;;;;;;;18.17;100.00;99899.02;105649;1256;72025;-68
2023/05/19 07:22:08;;;;;;;;;;;;;;;18.30;100.00;99901.10;105602;1254;63775;-72
2023/05/19 07:24:35;;;;;;;;;;;;;;;18.47;100.00;99895.86;105545;1254;61193;-68
2023/05/19 07:27:02;;;;;;;;;;;;;;;18.64;100.00;99895.12;105600;1254;75721;-68
2023/05/19 07:29:28;;;;;;;;;;;;;;;18.80;100.00;99892.00;105550;1254;70793;-66
2023/05/19 07:31:56;;;;;;;;;;;;;;;18.96;100.00;99890.30;105499;1257;73813;-69
2023/05/19 07:34:24;;;;;;;;;;;;;;;19.11;100.00;99892.98;105585;1254;64360;-71
2023/05/19 07:36:50;;;;;;;;;;;;;;;19.22;100.00;99888.23;105484;1258;61956;-69
2023/05/19 07:39:18;;;;;;;;;;;;;;;19.30;100.00;99891.05;105523;1258;76151;-68
2023/05/19 07:41:51;;;;;;;;;;;;;;;19.35;100.00;99885.75;105480;1259;69616;-68
2023/05/19 07:44:18;;;;;;;;;;;;;;;19.50;100.00;99891.45;105491;1258;75146;-67
2023/05/19 07:46:45;;;;;;;;;;;;;;;19.72;100.00;99893.41;105439;1259;60630;-68
2023/05/19 07:49:12;;;;;;;;;;;;;;;19.95;100.00;99890.44;105413;1258;62907;-64
2023/05/19 07:51:40;;;;;;;;;;;;;;;20.14;100.00;99888.73;105590;1254;75965;-66
2023/05/19 07:54:07;;;;;;;;;;;;;;;20.38;100.00;99890.52;105703;1254;67451;-69
2023/05/19 07:56:34;;;;;;;;;;;;;;;20.55;100.00;99888.55;105485;1254;75077;-67
2023/05/19 07:59:02;;;;;;;;;;;;;;;20.60;100.00;99886.30;105476;1260;63308;-66
2023/05/19 08:01:29;;;;;;;;;;;;;;;20.63;100.00;99883.69;105559;1257;61461;-66
2023/05/19 08:03:56;;;;;;;;;;;;;;;20.68;100.00;99885.63;105524;1254;75098;-65
2023/05/19 08:06:24;;;;;;;;;;;;;;;20.67;100.00;99884.34;109304;1254;70153;-65
2023/05/19 08:08:51;;;;;;;;;;;;;;;20.67;100.00;99876.82;109366;1253;73065;-65
2023/05/19 08:11:17;;;;;;;;;;;;;;;20.67;100.00;99880.19;109280;1254;60288;-65
2023/05/19 08:13:47;;;;;;;;;;;;;;;20.62;100.00;99879.66;109413;1252;59768;-68
2023/05/19 08:16:16;;;;;;;;;;;;;;;20.57;100.00;99882.42;109381;1253;74925;-68
2023/05/19 08:18:43;;;;;;;;;;;;;;;20.62;100.00;99882.44;109310;1254;70083;-67
2023/05/19 08:21:10;;;;;;;;;;;;;;;20.72;100.00;99880.71;109319;1253;74299;-67
2023/05/19 08:23:37;;;;;;;;;;;;;;;20.80;100.00;99883.05;109357;1252;63321;-67
2023/05/19 08:26:04;;;;;;;;;;;;;;;20.82;100.00;99882.42;109348;1253;61605;-67
2023/05/19 08:28:31;;;;;;;;;;;;;;;20.82;100.00;99883.38;109377;1253;74345;-66
2023/05/19 08:30:58;;;;;;;;;;;;;;;20.84;100.00;99879.64;109420;1253;69317;-68
2023/05/19 08:33:25;;;;;;;;;;;;;;;20.95;100.00;99883.41;109326;1254;73874;-66
2023/05/19 08:35:51;;;;;;;;;;;;;;;21.05;100.00;99887.23;109398;1253;61380;-66
2023/05/19 08:38:18;;;;;;;;;;;;;;;21.14;100.00;99890.85;109384;1253;61779;-68
2023/05/19 08:40:45;;;;;;;;;;;;;;;21.25;100.00;99889.86;109453;1253;76082;-68
2023/05/19 08:43:12;;;;;;;;;;;;;;;21.34;100.00;99888.46;109408;1253;70437;-65
2023/05/19 08:45:40;;;;;;;;;;;;;;;21.34;100.00;99887.45;109436;1252;75063;-67
2023/05/19 08:48:07;;;;;;;;;;;;;;;21.40;100.00;99887.83;109455;1252;63305;-66
2023/05/19 08:50:35;;;;;;;;;;;;;;;21.41;100.00;99886.72;109430;1252;62121;-68
2023/05/19 08:53:02;;;;;;;;;;;;;;;21.41;100.00;99890.30;109361;1253;73944;-69
2023/05/19 08:55:35;;;;;;;;;;;;;;;21.41;100.00;99886.52;109414;1254;69322;-67
2023/05/19 08:58:02;;;;;;;;;;;;;;;21.52;100.00;99882.77;109512;1252;73999;-66
2023/05/19 09:00:29;;;;;;;;;;;;;;;22.01;100.00;99882.75;109458;1253;61133;-66
2023/05/19 09:02:59;;;;;;;;;;;;;;;22.62;100.00;99877.11;109385;1253;58934;-70
2023/05/19 09:05:42;;;;;;;;;;;;;;;23.17;100.00;99885.41;109429;1253;75289;-71
2023/05/19 09:08:09;;;;;;;;;;;;;;;23.51;100.00;99881.90;109460;1252;69798;-68
2023/05/19 09:10:36;;;;;;;;;;;;;;;23.68;100.00;99879.70;109375;1252;72432;-68
2023/05/19 09:13:03;;;;;;;;;;;;;;;23.72;100.00;99879.45;109436;1253;61225;-69
2023/05/19 09:15:30;;;;;;;;;;;;;;;23.89;100.00;99878.76;109451;1253;61306;-69
2023/05/19 09:18:07;;;;;;;;;;;;;;;24.26;100.00;99873.11;109580;1252;76114;-66
2023/05/19 09:20:41;;;;;;;;;;;;;;;24.37;100.00;99871.26;109381;1252;68220;-67
2023/05/19 09:23:12;;;;;;;;;;;;;;;24.34;100.00;99866.80;109364;1253;73161;-66
2023/05/19 09:25:45;;;;;;;;;;;;;;;24.59;100.00;99863.17;109314;1253;62801;-67
2023/05/19 09:28:12;;;;;;;;;;;;;;;24.75;100.00;99862.80;109364;1252;60202;-67
2023/05/19 09:30:39;;;;;;;;;;;;;;;24.69;100.00;99861.72;109525;1252;74898;-68
2023/05/19 09:33:08;;;;;;;;;;;;;;;24.69;100.00;99863.14;109446;1253;67780;-66
2023/05/19 09:35:36;;;;;;;;;;;;;;;24.82;100.00;99862.03;109349;1253;73437;-65
2023/05/19 09:38:02;;;;;;;;;;;;;;;24.91;100.00;99864.41;109383;1252;62580;-67
2023/05/19 09:40:29;;;;;;;;;;;;;;;24.84;100.00;99861.63;109469;1252;61410;-68
2023/05/19 09:42:56;;;;;;;;;;;;;;;24.68;100.00;99860.42;109367;1253;75986;-67
2023/05/19 09:45:23;;;;;;;;;;;;;;;24.47;100.00;99859.65;109585;1252;70145;-68
2023/05/19 09:47:50;;;;;;;;;;;;;;;24.29;100.00;99858.42;109420;1253;73443;-65
2023/05/19 09:50:16;;;;;;;;;;;;;;;24.14;100.00;99855.20;109444;1253;61300;-67
2023/05/19 09:52:43;;;;;;;;;;;;;;;24.06;100.00;99850.45;109464;1253;58528;-68
2023/05/19 09:55:11;;;;;;;;;;;;;;;24.08;100.00;99853.80;109478;1252;72660;-68
2023/05/19 09:57:38;;;;;;;;;;;;;;;24.12;100.00;99852.95;109440;1252;68306;-66
2023/05/19 10:00:16;;;;;;;;;;;;;;;24.16;100.00;99848.38;109438;1252;75181;-66
2023/05/19 10:02:43;;;;;;;;;;;;;;;24.36;100.00;99852.70;109468;1253;62591;-67
2023/05/19 10:05:18;;;;;;;;;;;;;;;24.67;100.00;99852.94;109485;1253;60649;-67
2023/05/19 10:07:50;;;;;;;;;;;;;;;24.86;100.00;99853.42;109429;1253;75935;-67
2023/05/19 10:10:18;;;;;;;;;;;;;;;25.11;100.00;99853.72;109519;1253;70272;-69
2023/05/19 10:12:45;;;;;;;;;;;;;;;25.50;100.00;99853.55;109464;1252;73669;-68
2023/05/19 10:15:13;;;;;;;;;;;;;;;25.72;100.00;99851.83;109530;1252;60755;-68
2023/05/19 10:17:40;;;;;;;;;;;;;;;26.02;100.00;99847.05;109422;1253;62076;-68
2023/05/19 10:20:08;;;;;;;;;;;;;;;26.68;100.00;99844.14;109432;1253;72901;-71
2023/05/19 10:22:35;;;;;;;;;;;;;;;27.39;97.72;99838.33;109494;1253;68763;-66
2023/05/19 10:25:02;;;;;;;;;;;;;;;27.96;94.37;99836.23;109394;1253;71734;-67
2023/05/19 10:27:28;;;;;;;;;;;;;;;28.28;91.14;99840.24;109334;1253;62478;-67
2023/05/19 10:29:56;;;;;;;;;;;;;;;28.23;88.24;99837.08;109337;1253;60514;-67
2023/05/19 10:32:23;;;;;;;;;;;;;;;27.97;87.07;99836.98;109405;1253;73962;-69
2023/05/19 10:35:02;;;;;;;;;;;;;;;27.69;87.27;99836.95;109343;1253;70180;-71
2023/05/19 10:37:48;;;;;;;;;;;;;;;27.22;88.70;99838.38;109197;1253;74348;-69
2023/05/19 10:40:28;;;;;;;;;;;;;;;26.79;90.63;99832.85;109313;1254;62451;-72
2023/05/19 10:43:12;;;;;;;;;;;;;;;26.58;92.94;99835.09;109327;1253;62421;-72
2023/05/19 10:45:50;;;;;;;;;;;;;;;26.56;93.94;99832.67;109330;1253;73048;-71
2023/05/19 10:48:21;;;;;;;;;;;;;;;26.48;94.38;99835.85;109425;1253;69653;-68
2023/05/19 10:50:51;;;;;;;;;;;;;;;26.26;94.98;99827.34;109361;1253;72942;-70
2023/05/19 10:53:21;;;;;;;;;;;;;;;26.06;95.93;99829.37;109344;1253;62562;-68
2023/05/19 10:55:52;;;;;;;;;;;;;;;25.91;96.69;99824.13;109386;1253;58946;-69
2023/05/19 10:58:40;;;;;;;;;;;;;;;25.89;97.64;99823.81;109269;1253;73194;-70
2023/05/19 11:01:08;;;;;;;;;;;;;;;25.87;98.40;99827.17;109376;1252;69447;-70
2023/05/19 11:03:41;;;;;;;;;;;;;;;25.79;97.95;99821.77;109330;1253;73412;-70
2023/05/19 11:06:18;;;;;;;;;;;;;;;25.70;97.98;99823.70;109323;1253;62709;-71
2023/05/19 11:08:46;;;;;;;;;;;;;;;25.62;98.75;99829.90;109375;1253;60992;-68
2023/05/19 11:11:13;;;;;;;;;;;;;;;25.49;99.24;99827.16;109449;1253;76080;-68
2023/05/19 11:13:50;;;;;;;;;;;;;;;25.42;100.00;99823.38;109383;1254;70287;-68
2023/05/19 11:16:18;;;;;;;;;;;;;;;25.42;100.00;99820.77;109371;1253;72744;-69
2023/05/19 11:18:48;;;;;;;;;;;;;;;25.38;99.99;99820.29;109301;1254;60843;-68
2023/05/19 11:21:15;;;;;;;;;;;;;;;25.46;100.00;99824.08;109341;1253;59699;-70
2023/05/19 11:23:42;;;;;;;;;;;;;;;25.62;99.59;99818.19;109282;1253;75010;-71
2023/05/19 11:26:09;;;;;;;;;;;;;;;25.67;97.02;99823.56;109285;1253;70746;-71
2023/05/19 11:28:36;;;;;;;;;;;;;;;25.69;97.08;99818.08;109358;1253;74141;-69
2023/05/19 11:31:06;;;;;;;;;;;;;;;25.79;96.65;99815.81;109428;1253;61507;-70
2023/05/19 11:33:33;;;;;;;;;;;;;;;25.92;95.90;99819.45;109379;1252;60400;-68
2023/05/19 11:36:00;;;;;;;;;;;;;;;26.04;94.23;99813.91;109354;1253;75731;-72
2023/05/19 11:38:27;;;;;;;;;;;;;;;26.11;92.19;99815.61;109364;1253;68770;-70
2023/05/19 11:40:54;;;;;;;;;;;;;;;26.09;91.84;99821.28;109389;1253;74652;-66
2023/05/19 11:43:21;;;;;;;;;;;;;;;25.95;92.72;99823.02;109351;1253;60523;-70
2023/05/19 11:45:48;;;;;;;;;;;;;;;25.92;93.73;99826.54;109415;1253;58083;-68
2023/05/19 11:48:16;;;;;;;;;;;;;;;25.89;93.29;99822.48;109237;1253;74616;-67
2023/05/19 11:50:43;;;;;;;;;;;;;;;25.82;93.82;99819.66;109400;1254;69712;-68
2023/05/19 11:53:10;;;;;;;;;;;;;;;25.72;93.22;99821.86;109400;1253;74675;-66
2023/05/19 11:55:41;;;;;;;;;;;;;;;25.65;95.67;99817.29;109385;1253;62544;-71
2023/05/19 11:58:08;;;;;;;;;;;;;;;25.73;97.08;99816.15;109453;1252;60846;-70
2023/05/19 12:00:36;;;;;;;;;;;;;;;25.77;95.90;99813.77;109489;1253;73688;-70
2023/05/19 12:03:03;;;;;;;;;;;;;;;25.65;94.32;99821.21;109496;1253;70315;-67
2023/05/19 12:05:30;;;;;;;;;;;;;;;25.56;94.61;99822.99;109443;1254;73766;-71
2023/05/19 12:08:01;;;;;;;;;;;;;;;25.51;96.02;99821.52;109311;1253;62945;-71
2023/05/19 12:10:29;;;;;;;;;;;;;;;25.45;94.44;99821.18;109436;1252;60675;-67
2023/05/19 12:12:57;;;;;;;;;;;;;;;25.39;95.22;99820.41;109389;1253;75591;-68
2023/05/19 12:15:24;;;;;;;;;;;;;;;25.34;96.16;99819.44;109416;1253;69348;-68
2023/05/19 12:17:57;;;;;;;;;;;;;;;25.26;96.37;99823.23;109398;1254;75171;-69
2023/05/19 12:20:25;;;;;;;;;;;;;;;25.17;97.18;99822.80;109380;1252;60741;-68
2023/05/19 12:22:53;;;;;;;;;;;;;;;25.04;97.58;99818.96;109494;1252;59693;-66
2023/05/19 12:25:20;;;;;;;;;;;;;;;24.96;97.18;99814.09;109489;1253;74837;-66
2023/05/19 12:27:51;;;;;;;;;;;;;;;24.92;97.20;99812.46;109401;1253;70349;-66
2023/05/19 12:30:20;;;;;;;;;;;;;;;24.93;98.47;99809.27;109471;1253;73953;-69
2023/05/19 12:32:48;;;;;;;;;;;;;;;24.99;97.27;99800.52;109357;1252;60436;-66
2023/05/19 12:35:14;;;;;;;;;;;;;;;24.98;96.66;99805.50;109444;1252;60422;-69